Lake Tahoe, California
Current Conditions -  °F | °C
As of 5:53 PM on Sunday 25 Jan 2015 (Local Time) from KTVL Reporting Station
Clear Clear  
Wind Chill:   Ceiling: Unl
Heat Index:   Visibility: 10mi
Dew Point: -4°   Wind: 5mph
Humidity: 47%   Direction: NA
Pressure: 30.28"   Gusts: NA
Location:  38.9°N, 120°W
Report Text: KTVL 260153Z AUTO VRB04KT 10SM CLR 07/M04 A3028 RMK AO2 SLP242 T00671039
Loading
Personal Weather Stations






























Interactive Weather Map New forecast layout! Learn more

10-Day Weather Forecast

Advertisements
Track Severe Weather on mobile